createdAt,value
2018-09-20T00:01:49.964Z,2.43
2018-09-20T00:04:19.174Z,2.50
2018-09-20T00:06:48.378Z,2.80
2018-09-20T00:09:17.651Z,3.07
2018-09-20T00:11:46.809Z,2.57
2018-09-20T00:14:16.049Z,2.63
2018-09-20T00:16:45.223Z,2.60
2018-09-20T00:19:14.443Z,2.80
2018-09-20T00:21:43.627Z,3.07
2018-09-20T00:24:12.893Z,2.90
2018-09-20T00:26:42.061Z,3.17
2018-09-20T00:29:11.290Z,2.80
2018-09-20T00:31:40.470Z,2.83
2018-09-20T00:34:09.667Z,2.70
2018-09-20T00:36:38.868Z,2.73
2018-09-20T00:39:11.109Z,2.90
2018-09-20T00:41:40.327Z,2.77
2018-09-20T00:44:10.031Z,3.07
2018-09-20T00:46:39.243Z,2.77
2018-09-20T00:49:08.444Z,2.67
2018-09-20T00:51:37.647Z,2.90
2018-09-20T00:54:06.883Z,2.40
2018-09-20T00:56:36.077Z,2.77
2018-09-20T00:59:05.284Z,2.57
2018-09-20T01:01:34.603Z,2.67
2018-09-20T01:04:03.818Z,2.83
2018-09-20T01:06:33.023Z,2.70
2018-09-20T01:09:02.307Z,2.57
2018-09-20T01:11:31.552Z,2.83
2018-09-20T01:14:00.704Z,2.80
2018-09-20T01:16:29.988Z,2.83
2018-09-20T01:18:59.179Z,2.60
2018-09-20T01:21:28.378Z,2.70
2018-09-20T01:23:57.577Z,2.73
2018-09-20T01:26:26.843Z,3.00
2018-09-20T01:28:56.063Z,2.90
2018-09-20T01:31:25.368Z,2.90
2018-09-20T01:33:55.147Z,3.30
2018-09-20T01:36:24.447Z,2.60
2018-09-20T01:38:53.856Z,3.07
2018-09-20T01:41:23.083Z,3.20
2018-09-20T01:43:52.257Z,2.93
2018-09-20T01:46:21.516Z,3.00
2018-09-20T01:48:50.711Z,2.70
2018-09-20T01:51:19.963Z,3.37
2018-09-20T01:53:49.142Z,2.83
2018-09-20T01:56:18.378Z,2.93
2018-09-20T01:58:47.619Z,2.97
2018-09-20T02:01:16.830Z,3.20
2018-09-20T02:03:46.164Z,2.67
2018-09-20T02:06:15.376Z,2.73
2018-09-20T02:08:44.564Z,2.87
2018-09-20T02:11:13.767Z,2.90
2018-09-20T02:13:42.964Z,3.07
2018-09-20T02:16:12.220Z,2.93
2018-09-20T02:18:41.377Z,2.90
2018-09-20T02:21:10.603Z,2.43
2018-09-20T02:23:39.963Z,3.20
2018-09-20T02:26:09.231Z,2.80
2018-09-20T02:28:38.476Z,2.97
2018-09-20T02:31:07.724Z,2.60
2018-09-20T02:33:36.970Z,3.00
2018-09-20T02:36:06.243Z,2.73
2018-09-20T02:38:35.718Z,2.87
2018-09-20T02:41:05.060Z,2.97
2018-09-20T02:43:34.195Z,2.70
2018-09-20T02:46:03.451Z,3.00
2018-09-20T02:48:32.626Z,3.10
2018-09-20T02:51:03.131Z,3.33
2018-09-20T02:53:32.327Z,2.77
2018-09-20T02:56:01.540Z,3.13
2018-09-20T02:58:30.743Z,2.80
2018-09-20T03:01:00.033Z,3.20
2018-09-20T03:03:29.230Z,3.20
2018-09-20T03:05:58.496Z,3.70
2018-09-20T03:08:27.666Z,3.17
2018-09-20T03:10:56.897Z,2.93
2018-09-20T03:13:26.103Z,2.57
2018-09-20T03:15:55.330Z,2.80
2018-09-20T03:18:24.533Z,2.90
2018-09-20T03:20:53.737Z,3.33
2018-09-20T03:23:22.925Z,2.77
2018-09-20T03:25:52.140Z,3.30
2018-09-20T03:28:21.346Z,3.57
2018-09-20T03:30:50.760Z,3.17
2018-09-20T03:33:19.943Z,3.20
2018-09-20T03:35:49.141Z,3.13
2018-09-20T03:38:18.397Z,3.30
2018-09-20T03:40:47.596Z,3.40
2018-09-20T03:43:16.789Z,3.50
2018-09-20T03:45:46.042Z,3.77
2018-09-20T03:48:15.233Z,3.10
2018-09-20T03:50:44.543Z,3.27
2018-09-20T03:53:13.792Z,3.07
2018-09-20T03:55:42.992Z,3.43
2018-09-20T03:58:12.196Z,3.33
2018-09-20T04:00:41.352Z,3.37
2018-09-20T04:03:10.573Z,2.83
2018-09-20T04:05:39.786Z,3.20
2018-09-20T04:08:09.043Z,3.10
2018-09-20T04:10:38.229Z,3.27
2018-09-20T04:13:07.469Z,3.40
2018-09-20T04:15:36.654Z,3.50
2018-09-20T04:18:05.872Z,3.23
2018-09-20T04:20:35.047Z,3.50
2018-09-20T04:23:04.284Z,3.40
2018-09-20T04:25:33.455Z,3.73
2018-09-20T04:28:02.676Z,3.80
2018-09-20T04:30:31.862Z,3.50
2018-09-20T04:33:01.101Z,3.57
2018-09-20T04:35:30.261Z,3.63
2018-09-20T04:37:59.477Z,3.23
2018-09-20T04:40:28.642Z,3.40
2018-09-20T04:42:57.854Z,3.57
2018-09-20T04:45:27.086Z,3.30
2018-09-20T04:47:56.308Z,3.17
2018-09-20T04:50:25.528Z,3.37
2018-09-20T04:52:54.756Z,3.60
2018-09-20T04:55:23.971Z,3.57
2018-09-20T04:57:53.239Z,3.53
2018-09-20T05:00:22.469Z,3.47
2018-09-20T05:02:51.676Z,3.77
2018-09-20T05:05:20.884Z,3.63
2018-09-20T05:07:50.123Z,4.13
2018-09-20T05:10:19.360Z,3.37
2018-09-20T05:12:48.590Z,3.50
2018-09-20T05:15:17.784Z,3.53
2018-09-20T05:17:46.992Z,3.60
2018-09-20T05:20:16.185Z,3.43
2018-09-20T05:22:45.412Z,3.20
2018-09-20T05:25:14.632Z,3.23
2018-09-20T05:27:43.862Z,3.67
2018-09-20T05:30:13.040Z,3.93
2018-09-20T05:32:42.248Z,3.67
2018-09-20T05:35:11.424Z,3.60
2018-09-20T05:37:40.654Z,3.40
2018-09-20T05:40:09.829Z,3.40
2018-09-20T05:42:39.063Z,3.43
2018-09-20T05:45:08.251Z,3.90
2018-09-20T05:47:37.467Z,3.60
2018-09-20T05:50:06.977Z,3.80
2018-09-20T05:52:36.241Z,3.37
2018-09-20T05:55:05.974Z,3.30
2018-09-20T05:57:35.227Z,3.57
2018-09-20T06:00:05.315Z,3.90
2018-09-20T06:02:34.556Z,4.07
2018-09-20T06:05:04.409Z,3.87
2018-09-20T06:07:33.757Z,4.00
2018-09-20T06:10:03.486Z,3.73
2018-09-20T06:12:32.698Z,3.23
2018-09-20T06:15:01.913Z,4.13
2018-09-20T06:17:31.101Z,3.60
2018-09-20T06:20:00.321Z,3.77
2018-09-20T06:22:29.524Z,3.57
2018-09-20T06:24:59.006Z,3.83
2018-09-20T06:27:28.192Z,4.30
2018-09-20T06:29:57.426Z,4.33
2018-09-20T06:32:26.738Z,4.00
2018-09-20T06:34:56.102Z,4.40
2018-09-20T06:37:25.273Z,3.97
2018-09-20T06:39:54.516Z,3.93
2018-09-20T06:42:23.736Z,4.23
2018-09-20T06:44:52.968Z,4.17
2018-09-20T06:47:22.220Z,4.40
2018-09-20T06:49:51.471Z,4.10
2018-09-20T06:52:20.674Z,4.40
2018-09-20T06:54:49.921Z,4.30
2018-09-20T06:57:19.141Z,4.80
2018-09-20T06:59:48.370Z,4.13
2018-09-20T07:02:17.601Z,4.50
2018-09-20T07:04:46.825Z,4.47
2018-09-20T07:07:16.141Z,4.63
2018-09-20T07:09:45.379Z,5.17
2018-09-20T07:12:14.568Z,5.30
2018-09-20T07:14:43.815Z,4.57
2018-09-20T07:17:13.027Z,4.43
2018-09-20T07:19:42.266Z,4.40
2018-09-20T07:22:11.469Z,4.37
2018-09-20T07:24:40.699Z,4.60
2018-09-20T07:27:09.975Z,4.10
2018-09-20T07:29:39.195Z,4.13
2018-09-20T07:32:08.571Z,4.13
2018-09-20T07:34:37.815Z,4.17
2018-09-20T07:37:07.027Z,3.90
2018-09-20T07:39:36.227Z,4.17
2018-09-20T07:42:05.416Z,4.57
2018-09-20T07:44:34.636Z,4.17
2018-09-20T07:47:03.885Z,4.10
2018-09-20T07:49:33.097Z,4.33
2018-09-20T07:52:02.272Z,3.97
2018-09-20T07:54:31.525Z,4.03
2018-09-20T07:57:00.794Z,4.30
2018-09-20T07:59:30.091Z,4.53
2018-09-20T08:01:59.315Z,4.87
2018-09-20T08:04:28.685Z,4.70
2018-09-20T08:06:57.933Z,4.70
2018-09-20T08:09:27.196Z,4.80
2018-09-20T08:11:56.412Z,4.80
2018-09-20T08:14:25.643Z,4.47
2018-09-20T08:16:54.851Z,4.53
2018-09-20T08:19:24.071Z,4.80
2018-09-20T08:21:53.281Z,4.90
2018-09-20T08:24:22.523Z,4.67
2018-09-20T08:26:51.666Z,4.77
2018-09-20T08:29:20.930Z,4.20
2018-09-20T08:31:50.224Z,4.93
2018-09-20T08:34:19.475Z,4.70
2018-09-20T08:36:48.772Z,4.43
2018-09-20T08:39:18.054Z,4.57
2018-09-20T08:41:47.303Z,4.40
2018-09-20T08:44:16.472Z,4.23
2018-09-20T08:46:45.708Z,4.57
2018-09-20T08:49:15.082Z,5.10
2018-09-20T08:51:44.325Z,4.23
2018-09-20T08:54:13.532Z,4.20
2018-09-20T08:56:42.830Z,3.90
2018-09-20T08:59:12.040Z,4.57
2018-09-20T09:01:41.281Z,5.13
2018-09-20T09:04:11.507Z,4.07
2018-09-20T09:06:40.748Z,4.27
2018-09-20T09:09:10.615Z,4.53
2018-09-20T09:11:40.291Z,3.90
2018-09-20T09:14:09.849Z,4.07
2018-09-20T09:16:39.217Z,4.00
2018-09-20T09:19:08.503Z,4.60
2018-09-20T09:21:39.092Z,6.17
2018-09-20T09:24:08.247Z,5.87
2018-09-20T09:26:37.454Z,6.27
2018-09-20T09:29:06.551Z,5.73
2018-09-20T09:31:36.293Z,5.30
2018-09-20T09:34:05.430Z,4.60
2018-09-20T09:36:34.679Z,4.70
2018-09-20T09:39:04.413Z,4.17
2018-09-20T09:41:33.697Z,4.37
2018-09-20T09:44:02.823Z,4.27
2018-09-20T09:46:32.083Z,4.30
2018-09-20T09:49:01.288Z,3.80
2018-09-20T09:51:30.571Z,3.83
2018-09-20T09:53:59.809Z,3.87
2018-09-20T09:56:29.233Z,3.80
2018-09-20T09:58:58.427Z,4.03
2018-09-20T10:01:27.777Z,4.60
2018-09-20T10:03:56.947Z,4.20
2018-09-20T10:06:26.139Z,4.27
2018-09-20T10:08:56.608Z,3.70
2018-09-20T10:11:25.891Z,4.10
2018-09-20T10:13:55.134Z,4.40
2018-09-20T10:16:24.341Z,4.03
2018-09-20T10:18:53.518Z,4.00
2018-09-20T10:21:22.737Z,4.23
2018-09-20T10:23:51.982Z,3.70
2018-09-20T10:26:21.280Z,3.70
2018-09-20T10:28:50.480Z,4.00
2018-09-20T10:31:19.932Z,3.87
2018-09-20T10:33:49.853Z,4.00
2018-09-20T10:36:19.121Z,3.80
2018-09-20T10:38:48.440Z,3.80
2018-09-20T10:41:17.696Z,3.73
2018-09-20T10:43:46.982Z,3.90
2018-09-20T10:46:16.223Z,3.70
2018-09-20T10:48:45.426Z,3.90
2018-09-20T10:51:14.893Z,3.77
2018-09-20T10:53:44.101Z,3.43
2018-09-20T10:56:13.335Z,7.77
2018-09-20T10:58:42.566Z,13.70
2018-09-20T11:01:11.861Z,13.70
2018-09-20T11:03:41.069Z,10.17
2018-09-20T11:06:10.331Z,7.33
2018-09-20T11:08:39.563Z,8.83
2018-09-20T11:11:08.902Z,8.67
2018-09-20T11:13:38.028Z,8.23
2018-09-20T11:16:07.319Z,6.93
2018-09-20T11:18:36.511Z,7.10
2018-09-20T11:21:05.848Z,5.63
2018-09-20T11:23:35.099Z,5.30
2018-09-20T11:26:04.363Z,4.93
2018-09-20T11:28:33.565Z,4.00
2018-09-20T11:31:02.803Z,4.47
2018-09-20T11:33:32.057Z,4.13
2018-09-20T11:36:01.292Z,3.93
2018-09-20T11:38:30.513Z,4.00
2018-09-20T11:40:59.753Z,3.93
2018-09-20T11:43:29.162Z,3.53
2018-09-20T11:45:58.383Z,3.80
2018-09-20T11:48:27.643Z,4.00
2018-09-20T11:50:56.835Z,3.73
2018-09-20T11:53:26.077Z,3.40
2018-09-20T11:55:55.258Z,3.40
2018-09-20T11:58:24.514Z,3.33
2018-09-20T12:00:54.021Z,3.53
2018-09-20T12:03:23.431Z,3.57
2018-09-20T12:05:52.688Z,3.67
2018-09-20T12:08:21.987Z,3.90
2018-09-20T12:10:51.182Z,4.13
2018-09-20T12:13:20.425Z,3.60
2018-09-20T12:15:49.670Z,3.60
2018-09-20T12:18:18.947Z,3.60
2018-09-20T12:20:48.441Z,3.73
2018-09-20T12:23:17.691Z,3.83
2018-09-20T12:25:46.911Z,3.40
2018-09-20T12:28:59.684Z,3.30
2018-09-20T12:31:29.983Z,3.50
2018-09-20T12:33:59.272Z,3.37
2018-09-20T12:36:28.494Z,3.43
2018-09-20T12:38:57.855Z,3.57
2018-09-20T12:41:26.973Z,3.70
2018-09-20T12:43:56.074Z,3.83
2018-09-20T12:46:25.318Z,3.20
2018-09-20T12:48:54.578Z,3.45
2018-09-20T12:51:23.826Z,3.60
2018-09-20T12:53:53.075Z,3.30
2018-09-20T12:56:22.298Z,2.90
2018-09-20T12:58:52.309Z,3.27
2018-09-20T13:01:22.464Z,3.52
2018-09-20T13:03:52.112Z,3.65
2018-09-20T13:06:21.256Z,3.02
2018-09-20T13:08:50.566Z,2.90
2018-09-20T13:11:20.398Z,3.50
2018-09-20T13:13:49.615Z,3.40
2018-09-20T13:16:18.892Z,2.75
2018-09-20T13:18:48.168Z,2.80
2018-09-20T13:21:17.381Z,3.30
2018-09-20T13:23:46.614Z,3.10
2018-09-20T13:26:15.758Z,3.42
2018-09-20T13:28:45.033Z,2.87
2018-09-20T13:31:14.259Z,3.58
2018-09-20T13:33:43.700Z,2.87
2018-09-20T13:36:12.887Z,3.08
2018-09-20T13:38:42.311Z,3.15
2018-09-20T13:41:11.509Z,3.20
2018-09-20T13:43:40.870Z,3.05
2018-09-20T13:46:10.124Z,3.00
2018-09-20T13:48:39.590Z,3.15
2018-09-20T13:51:09.328Z,2.98
2018-09-20T13:53:38.609Z,3.08
2018-09-20T13:56:07.820Z,2.83
2018-09-20T13:58:37.352Z,3.08
2018-09-20T14:01:06.689Z,3.27
2018-09-20T14:03:35.920Z,3.20
2018-09-20T14:06:05.092Z,3.15
2018-09-20T14:08:34.319Z,2.55
2018-09-20T14:11:03.564Z,3.30
2018-09-20T14:13:32.700Z,3.07
2018-09-20T14:16:01.874Z,3.13
2018-09-20T14:18:31.016Z,3.23
2018-09-20T14:21:00.135Z,2.67
2018-09-20T14:23:29.349Z,3.12
2018-09-20T14:25:58.522Z,2.85
2018-09-20T14:28:27.888Z,2.95
2018-09-20T14:30:57.066Z,2.97
2018-09-20T14:33:26.384Z,2.98
2018-09-20T14:35:55.465Z,2.98
2018-09-20T14:38:24.749Z,2.67
2018-09-20T14:40:53.871Z,3.22
2018-09-20T14:43:23.064Z,3.10
2018-09-20T14:45:52.304Z,3.30
2018-09-20T14:48:21.511Z,3.40
2018-09-20T14:50:50.897Z,3.45
2018-09-20T14:53:20.182Z,3.25
2018-09-20T14:55:49.465Z,3.02
2018-09-20T15:01:22.351Z,3.67
2018-09-20T15:03:51.572Z,3.12
2018-09-20T15:06:20.678Z,2.60
2018-09-20T15:08:49.984Z,2.95
2018-09-20T15:11:19.212Z,2.67
2018-09-20T15:13:48.298Z,3.27
2018-09-20T15:16:17.412Z,3.67
2018-09-20T15:19:11.360Z,2.87
2018-09-20T15:21:40.469Z,2.80
2018-09-20T15:24:09.918Z,3.30
2018-09-20T15:26:39.343Z,3.47
2018-09-20T15:29:08.565Z,6.43
2018-09-20T15:32:05.089Z,3.53
2018-09-20T15:34:34.342Z,3.30
2018-09-20T15:37:03.546Z,3.27
2018-09-20T15:39:32.775Z,3.20
2018-09-20T15:42:02.096Z,3.57
2018-09-20T15:44:31.299Z,3.43
2018-09-20T15:47:00.552Z,3.40
2018-09-20T15:49:29.790Z,3.40
2018-09-20T15:51:58.995Z,3.53
2018-09-20T15:54:28.245Z,3.60
2018-09-20T15:56:57.379Z,3.47
2018-09-20T15:59:26.609Z,3.70
2018-09-20T16:01:55.780Z,3.30
2018-09-20T16:04:25.231Z,3.40
2018-09-20T16:06:54.420Z,2.97
2018-09-20T16:09:23.616Z,3.43
2018-09-20T16:11:52.804Z,3.50
2018-09-20T16:14:22.425Z,3.40
2018-09-20T16:16:51.827Z,3.50
2018-09-20T16:19:21.224Z,2.93
2018-09-20T16:21:50.304Z,3.10
2018-09-20T16:24:19.533Z,3.60
2018-09-20T16:26:48.690Z,3.57
2018-09-20T16:29:25.994Z,3.47
2018-09-20T16:34:13.490Z,2.93
2018-09-20T16:36:56.085Z,2.60
2018-09-20T16:39:27.055Z,3.37
2018-09-20T16:42:00.348Z,2.93
2018-09-20T16:44:29.584Z,3.50
2018-09-20T16:46:58.744Z,16.37
2018-09-20T16:49:27.968Z,12.27
2018-09-20T16:51:57.146Z,9.77
2018-09-20T16:54:26.371Z,6.40
2018-09-20T16:56:55.684Z,6.53
2018-09-20T16:59:24.905Z,5.70
2018-09-20T17:01:54.088Z,4.97
2018-09-20T17:04:23.326Z,4.77
2018-09-20T17:06:52.496Z,4.53
2018-09-20T17:09:21.719Z,4.23
2018-09-20T17:11:51.068Z,4.37
2018-09-20T17:14:20.362Z,3.60
2018-09-20T17:16:49.584Z,3.70
2018-09-20T17:19:18.835Z,3.77
2018-09-20T17:21:47.980Z,3.63
2018-09-20T17:24:17.221Z,3.37
2018-09-20T17:26:46.424Z,3.63
2018-09-20T17:29:15.705Z,3.33
2018-09-20T17:31:45.092Z,3.80
2018-09-20T17:34:14.436Z,3.67
2018-09-20T17:36:44.141Z,3.53
2018-09-20T17:39:14.500Z,3.73
2018-09-20T17:41:45.749Z,3.50
2018-09-20T17:44:14.948Z,3.90
2018-09-20T17:46:44.167Z,3.23
2018-09-20T17:49:13.397Z,3.57
2018-09-20T17:51:43.089Z,3.80
2018-09-20T17:54:12.837Z,3.67
2018-09-20T17:56:42.607Z,4.17
2018-09-20T17:59:11.808Z,3.80
2018-09-20T18:01:40.965Z,3.60
2018-09-20T18:04:10.193Z,3.53
2018-09-20T18:06:39.377Z,3.47
2018-09-20T18:09:09.660Z,3.70
2018-09-20T18:11:38.868Z,3.20
2018-09-20T18:14:08.045Z,3.50
2018-09-20T18:16:37.281Z,3.30
2018-09-20T18:19:06.434Z,3.23
2018-09-20T18:21:35.650Z,3.30
2018-09-20T18:24:04.772Z,3.50
2018-09-20T18:26:33.989Z,3.53
2018-09-20T18:29:03.169Z,3.33
2018-09-20T18:31:32.397Z,3.00
2018-09-20T18:34:01.714Z,3.60
2018-09-20T18:36:30.919Z,3.67
2018-09-20T18:39:00.093Z,3.03
2018-09-20T18:41:29.586Z,3.20
2018-09-20T18:43:58.947Z,3.40
2018-09-20T18:46:28.251Z,3.83
2018-09-20T18:48:57.580Z,3.07
2018-09-20T18:51:28.946Z,3.73
2018-09-20T18:53:58.232Z,3.00
2018-09-20T18:56:27.434Z,3.40
2018-09-20T18:58:56.615Z,3.10
2018-09-20T19:01:25.926Z,3.30
2018-09-20T19:03:55.121Z,3.50
2018-09-20T19:06:25.103Z,3.53
2018-09-20T19:08:54.405Z,3.53
2018-09-20T19:11:23.603Z,3.17
2018-09-20T19:13:52.793Z,3.07
2018-09-20T19:16:25.709Z,3.63
2018-09-20T19:18:54.885Z,3.50
2018-09-20T19:21:24.481Z,3.20
2018-09-20T19:23:53.294Z,3.60
2018-09-20T19:26:22.555Z,3.20
2018-09-20T19:28:51.560Z,3.23
2018-09-20T19:31:20.515Z,3.73
2018-09-20T19:33:49.364Z,2.83
2018-09-20T19:36:18.223Z,2.90
2018-09-20T19:38:47.074Z,3.17
2018-09-20T19:41:15.939Z,3.30
2018-09-20T19:43:44.794Z,3.30
2018-09-20T19:46:13.679Z,3.67
2018-09-20T19:48:42.842Z,3.60
2018-09-20T19:51:11.723Z,3.03
2018-09-20T19:53:40.614Z,3.10
2018-09-20T19:56:09.480Z,2.90
2018-09-20T19:58:38.302Z,3.53
2018-09-20T20:01:07.195Z,3.20
2018-09-20T20:03:36.043Z,3.90
2018-09-20T20:06:04.921Z,3.50
2018-09-20T20:08:33.772Z,3.20
2018-09-20T20:11:02.658Z,3.23
2018-09-20T20:13:31.515Z,3.47
2018-09-20T20:16:00.379Z,3.53
2018-09-20T20:18:29.211Z,3.40
2018-09-20T20:20:58.179Z,3.23
2018-09-20T20:23:27.002Z,3.70
2018-09-20T20:25:55.975Z,3.10
2018-09-20T20:28:24.847Z,3.17
2018-09-20T20:30:53.740Z,3.23
2018-09-20T20:33:22.586Z,3.47
2018-09-20T20:35:51.475Z,3.30
2018-09-20T20:38:20.395Z,3.20
2018-09-20T20:40:49.216Z,3.60
2018-09-20T20:43:18.116Z,3.70
2018-09-20T20:45:46.951Z,3.63
2018-09-20T20:48:15.842Z,3.53
2018-09-20T20:50:44.687Z,3.40
2018-09-20T20:53:13.548Z,3.50
2018-09-20T20:55:42.384Z,3.00
2018-09-20T20:58:11.239Z,3.60
2018-09-20T21:00:40.355Z,3.33
2018-09-20T21:03:09.373Z,3.20
2018-09-20T21:05:38.206Z,4.13
2018-09-20T21:08:07.067Z,3.53
2018-09-20T21:10:35.907Z,3.70
2018-09-20T21:13:04.761Z,3.70
2018-09-20T21:15:33.582Z,3.30
2018-09-20T21:18:02.451Z,3.77
2018-09-20T21:20:31.287Z,3.60
2018-09-20T21:23:00.146Z,3.97
2018-09-20T21:25:28.962Z,3.70
2018-09-20T21:27:57.824Z,3.47
2018-09-20T21:30:26.756Z,3.63
2018-09-20T21:32:55.619Z,3.10
2018-09-20T21:35:24.439Z,3.60
2018-09-20T21:37:53.415Z,3.57
2018-09-20T21:40:22.253Z,3.33
2018-09-20T21:42:51.108Z,3.57
2018-09-20T21:45:19.939Z,3.80
2018-09-20T21:47:48.825Z,3.43
2018-09-20T21:50:17.647Z,3.53
2018-09-20T21:52:46.500Z,3.30
2018-09-20T21:55:15.338Z,3.30
2018-09-20T21:57:44.231Z,3.10
2018-09-20T22:00:13.100Z,3.73
2018-09-20T22:02:47.119Z,3.27
2018-09-20T22:05:15.972Z,3.33
2018-09-20T22:07:44.866Z,3.30
2018-09-20T22:10:13.739Z,3.60
2018-09-20T22:12:42.626Z,3.40
2018-09-20T22:15:16.403Z,3.47
2018-09-20T22:17:45.305Z,3.50
2018-09-20T22:20:14.371Z,3.80
2018-09-20T22:22:43.294Z,3.57
2018-09-20T22:25:12.185Z,3.07
2018-09-20T22:27:41.211Z,3.60
2018-09-20T22:30:10.244Z,3.70
2018-09-20T22:32:39.131Z,3.57
2018-09-20T22:35:08.010Z,3.67
2018-09-20T22:37:36.872Z,3.60
2018-09-20T22:40:05.860Z,3.37
2018-09-20T22:42:34.705Z,3.50
2018-09-20T22:45:04.191Z,3.87
2018-09-20T22:47:34.022Z,3.63
2018-09-20T22:50:03.015Z,3.77
2018-09-20T22:52:31.870Z,3.63
2018-09-20T22:55:00.753Z,3.70
2018-09-20T22:57:29.615Z,3.43
2018-09-20T22:59:58.515Z,3.83
2018-09-20T23:02:27.348Z,3.73
2018-09-20T23:04:56.244Z,3.47
2018-09-20T23:07:25.108Z,3.73
2018-09-20T23:09:54.093Z,3.70
2018-09-20T23:12:22.926Z,3.63
2018-09-20T23:14:51.874Z,3.63
2018-09-20T23:17:20.723Z,4.00
2018-09-20T23:19:49.615Z,3.93
2018-09-20T23:22:18.495Z,3.83
2018-09-20T23:24:47.379Z,3.60
2018-09-20T23:27:16.231Z,3.40
2018-09-20T23:29:45.107Z,3.80
2018-09-20T23:32:13.972Z,3.30
2018-09-20T23:34:42.870Z,3.37
2018-09-20T23:37:11.703Z,3.70
2018-09-20T23:39:40.592Z,3.33
2018-09-20T23:42:09.461Z,3.53
2018-09-20T23:44:38.349Z,3.47
2018-09-20T23:47:07.176Z,3.87
2018-09-20T23:49:36.054Z,3.70
2018-09-20T23:52:04.982Z,3.77
2018-09-20T23:54:33.859Z,3.73
2018-09-20T23:57:02.700Z,3.63
2018-09-20T23:59:31.595Z,3.87
